Time;durP1;ratioP1;P1;durP2;ratioP2;P2;SDS_P1;SDS_P2;PMS_P1;PMS_P2;Temp;Humidity;BMP_temperature;BMP_pressure;BME280_temperature;BME280_humidity;BME280_pressure;Samples;Min_cycle;Max_cycle;Signal;HPM_P1;HPM_P2
2022/02/12 00:09:53;;;;;;;0.20;0.00;;;9.80;99.90;;;;;;25324234;23;20191;-71
2022/02/12 00:19:59;;;;;;;0.20;0.10;;;9.40;99.90;;;;;;25276307;23;20176;-71
2022/02/12 00:30:03;;;;;;;0.20;0.00;;;9.30;99.90;;;;;;25299544;23;20184;-64
2022/02/12 00:50:37;;;;;;;0.20;0.00;;;9.30;99.90;;;;;;24851081;23;20201;-72
2022/02/12 01:00:43;;;;;;;0.20;0.00;;;9.20;99.90;;;;;;24852024;23;20167;-71
2022/02/12 01:10:48;;;;;;;0.20;0.10;;;9.30;99.90;;;;;;24851254;24;20193;-70
2022/02/12 01:20:52;;;;;;;1.50;1.40;;;9.60;99.90;;;;;;24874382;23;20163;-74
2022/02/12 01:30:57;;;;;;;0.20;0.00;;;9.90;99.90;;;;;;24857004;24;20201;-74
2022/02/12 01:41:01;;;;;;;0.20;0.00;;;9.90;99.90;;;;;;24876956;23;20221;-73
2022/02/12 01:51:06;;;;;;;0.20;0.00;;;10.80;99.90;;;;;;25088092;23;20189;-73
2022/02/12 02:01:13;;;;;;;0.20;0.10;;;10.90;99.90;;;;;;25080886;23;20182;-73
2022/02/12 02:11:18;;;;;;;0.20;0.10;;;11.60;99.90;;;;;;25083711;23;20193;-68
2022/02/12 02:21:24;;;;;;;0.20;0.17;;;11.90;99.90;;;;;;25087809;23;20161;-68
2022/02/12 02:31:31;;;;;;;0.20;0.10;;;12.10;99.90;;;;;;25077525;23;20329;-68
2022/02/12 02:41:35;;;;;;;0.20;0.10;;;12.10;99.90;;;;;;25085294;23;20201;-67
2022/02/12 03:02:02;;;;;;;0.20;0.10;;;11.60;99.90;;;;;;25091763;23;20176;-66
2022/02/12 03:12:08;;;;;;;0.20;0.10;;;11.40;99.90;;;;;;25090527;23;20201;-66
2022/02/12 03:22:11;;;;;;;0.20;0.00;;;11.60;99.90;;;;;;25090322;23;20177;-67
2022/02/12 03:32:17;;;;;;;0.20;0.00;;;11.80;99.90;;;;;;25089942;23;20193;-67
2022/02/12 03:42:20;;;;;;;0.20;0.00;;;11.80;99.90;;;;;;25088783;23;20197;-66
2022/02/12 03:52:26;;;;;;;0.20;0.10;;;11.70;99.90;;;;;;25088248;23;20193;-67
2022/02/12 04:02:30;;;;;;;0.20;0.10;;;11.60;99.90;;;;;;25063946;23;20177;-67
2022/02/12 04:12:35;;;;;;;0.20;0.10;;;11.50;99.90;;;;;;25087451;23;20204;-66
2022/02/12 04:22:39;;;;;;;0.20;0.10;;;11.50;99.90;;;;;;25086665;23;20688;-69
2022/02/12 04:32:45;;;;;;;0.20;0.10;;;11.60;99.90;;;;;;25087574;23;20193;-68
2022/02/12 04:42:49;;;;;;;0.20;0.10;;;11.60;99.90;;;;;;25087129;23;20201;-67
2022/02/12 04:52:54;;;;;;;0.20;0.10;;;11.70;99.90;;;;;;25086756;23;20189;-67
2022/02/12 05:02:58;;;;;;;0.20;0.10;;;11.60;99.90;;;;;;25086603;23;20170;-67
2022/02/12 05:13:03;;;;;;;0.20;0.10;;;11.40;99.90;;;;;;25086059;23;20193;-67
2022/02/12 05:23:07;;;;;;;0.20;0.10;;;11.50;99.90;;;;;;25086613;23;20169;-67
2022/02/12 05:33:12;;;;;;;0.20;0.10;;;11.40;99.90;;;;;;25086761;23;20186;-68
2022/02/12 05:43:18;;;;;;;0.20;0.10;;;11.50;99.90;;;;;;25085662;23;21001;-67
2022/02/12 05:53:24;;;;;;;0.20;0.10;;;11.70;99.90;;;;;;25084776;23;20182;-67
2022/02/12 06:03:27;;;;;;;0.20;0.10;;;11.90;99.90;;;;;;25085113;23;20169;-68
2022/02/12 06:13:33;;;;;;;0.20;0.10;;;11.90;99.90;;;;;;25089120;23;20205;-68
2022/02/12 06:23:40;;;;;;;0.20;0.10;;;11.80;99.90;;;;;;25066720;23;20172;-68
2022/02/12 06:33:45;;;;;;;0.20;0.10;;;11.50;99.90;;;;;;25090659;23;20193;-67
2022/02/12 06:43:49;;;;;;;0.20;0.00;;;11.40;99.90;;;;;;25090603;23;20204;-67
2022/02/12 06:53:54;;;;;;;0.20;0.10;;;11.20;99.90;;;;;;25087849;23;20194;-67
2022/02/12 07:03:58;;;;;;;0.20;0.10;;;11.10;99.90;;;;;;25085802;23;20189;-67
2022/02/12 07:14:03;;;;;;;0.20;0.10;;;11.30;99.90;;;;;;25086994;23;20176;-67
2022/02/12 07:24:08;;;;;;;0.20;0.10;;;11.30;99.90;;;;;;25086668;23;20181;-67
2022/02/12 07:34:15;;;;;;;0.20;0.10;;;11.40;99.90;;;;;;25083895;23;20169;-67
2022/02/12 07:44:19;;;;;;;0.20;0.10;;;11.50;99.90;;;;;;25084886;23;20221;-65
2022/02/12 07:54:24;;;;;;;0.20;0.03;;;11.70;99.90;;;;;;25081192;23;20225;-66
2022/02/12 08:04:28;;;;;;;0.83;0.83;;;12.10;99.90;;;;;;25081384;23;20170;-65
2022/02/12 08:14:33;;;;;;;0.20;0.10;;;12.30;99.90;;;;;;25082247;23;20184;-65
2022/02/12 08:24:38;;;;;;;0.20;0.10;;;12.50;99.90;;;;;;25081860;23;20190;-66
2022/02/12 08:34:43;;;;;;;0.20;0.10;;;12.70;99.90;;;;;;25057971;23;20174;-66
2022/02/12 08:44:48;;;;;;;0.20;0.10;;;12.50;99.90;;;;;;25082196;23;20201;-67
2022/02/12 08:54:54;;;;;;;0.20;0.10;;;12.60;99.90;;;;;;25081067;23;20189;-68
2022/02/12 09:04:57;;;;;;;0.20;0.10;;;12.40;99.90;;;;;;25078758;23;20201;-67
2022/02/12 09:15:03;;;;;;;0.20;0.10;;;12.30;99.90;;;;;;25078294;23;20193;-68
2022/02/12 09:25:08;;;;;;;0.20;0.10;;;12.30;99.90;;;;;;25080326;23;20196;-69
2022/02/12 09:35:13;;;;;;;0.20;0.10;;;12.20;99.90;;;;;;25080630;23;20173;-68
2022/02/12 09:45:17;;;;;;;0.20;0.10;;;12.40;99.90;;;;;;25081916;23;20212;-67
2022/02/12 09:55:23;;;;;;;0.20;0.10;;;12.80;99.90;;;;;;25086271;23;20169;-65
2022/02/12 10:05:28;;;;;;;0.20;0.10;;;12.80;99.90;;;;;;25085115;23;20194;-66
2022/02/12 10:15:33;;;;;;;0.20;0.10;;;12.90;99.90;;;;;;25085565;23;20165;-65
2022/02/12 10:25:40;;;;;;;0.33;0.33;;;13.20;99.90;;;;;;25083196;23;20182;-66
2022/02/12 10:35:56;;;;;;;0.20;0.10;;;13.00;99.90;;;;;;25082866;23;20161;-66
2022/02/12 10:46:01;;;;;;;0.20;0.10;;;12.80;99.90;;;;;;25076448;23;20201;-66
2022/02/12 10:56:07;;;;;;;0.20;0.10;;;13.00;99.90;;;;;;25079070;23;20165;-67
2022/02/12 11:06:13;;;;;;;0.20;0.00;;;13.40;99.90;;;;;;25082021;23;20197;-67
2022/02/12 11:16:18;;;;;;;0.20;0.10;;;13.50;99.90;;;;;;25081609;23;20188;-66
2022/02/12 11:26:22;;;;;;;0.20;0.10;;;13.30;99.90;;;;;;25082149;23;20204;-67
2022/02/12 11:36:27;;;;;;;0.20;0.10;;;13.40;99.90;;;;;;25083616;23;20250;-67
2022/02/12 11:47:07;;;;;;;0.20;0.10;;;13.50;99.90;;;;;;25083234;23;20197;-69
2022/02/12 11:57:15;;;;;;;0.43;0.43;;;13.80;99.90;;;;;;25082077;23;20176;-69
2022/02/12 12:07:19;;;;;;;0.20;0.10;;;14.00;99.90;;;;;;25080431;23;20190;-68
2022/02/12 12:17:27;;;;;;;0.20;0.10;;;13.80;99.90;;;;;;25087337;23;20170;-67
2022/02/12 12:27:34;;;;;;;0.20;0.00;;;13.40;99.90;;;;;;25084623;23;20208;-68
2022/02/12 12:37:54;;;;;;;0.20;0.10;;;13.80;99.90;;;;;;25079315;23;20192;-68
2022/02/12 12:47:59;;;;;;;0.43;0.43;;;14.00;99.90;;;;;;25078850;23;20206;-68
2022/02/12 12:58:12;;;;;;;0.20;0.17;;;14.40;99.90;;;;;;25076715;23;20181;-71
2022/02/12 13:08:17;;;;;;;0.20;0.00;;;14.30;99.90;;;;;;25077967;23;20189;-72
2022/02/12 13:18:33;;;;;;;0.20;0.00;;;14.20;99.90;;;;;;25080075;23;20174;-74
2022/02/12 13:28:37;;;;;;;0.20;0.10;;;14.00;99.90;;;;;;25088052;23;20181;-74
2022/02/12 13:38:44;;;;;;;0.20;0.10;;;13.90;99.90;;;;;;25086130;23;20200;-77
2022/02/12 13:48:48;;;;;;;0.20;0.20;;;13.70;99.90;;;;;;25086859;23;20220;-73
2022/02/12 13:58:53;;;;;;;0.20;0.10;;;13.40;99.90;;;;;;25089076;23;20166;-73
2022/02/12 14:09:00;;;;;;;3.10;1.07;;;13.60;99.90;;;;;;25086806;23;20182;-66
2022/02/12 14:19:06;;;;;;;0.20;0.00;;;13.80;99.90;;;;;;25087750;23;20180;-66
2022/02/12 14:29:10;;;;;;;0.20;0.20;;;13.90;99.90;;;;;;25088122;23;20189;-67
2022/02/12 14:39:15;;;;;;;0.20;0.10;;;14.00;99.90;;;;;;25084397;23;20166;-67
2022/02/12 14:49:19;;;;;;;0.20;0.00;;;14.40;99.90;;;;;;25086760;23;20220;-71
2022/02/12 14:59:24;;;;;;;0.20;0.10;;;14.30;99.90;;;;;;25084961;23;20166;-76
2022/02/12 15:09:28;;;;;;;0.20;0.10;;;13.80;99.90;;;;;;25084334;23;20204;-72
2022/02/12 15:19:33;;;;;;;0.20;0.10;;;13.50;99.90;;;;;;25081422;23;20169;-72
2022/02/12 15:29:39;;;;;;;0.20;0.10;;;13.80;99.90;;;;;;25082566;23;20209;-70
2022/02/12 15:39:44;;;;;;;0.20;0.20;;;13.20;99.90;;;;;;25081302;23;20177;-72
2022/02/12 15:49:49;;;;;;;0.20;0.10;;;13.30;99.90;;;;;;25082327;23;20201;-71
2022/02/12 15:59:56;;;;;;;0.20;0.10;;;13.60;99.90;;;;;;25082118;23;20173;-72
2022/02/12 16:10:00;;;;;;;0.20;0.10;;;13.20;99.90;;;;;;25082049;23;20185;-70
2022/02/12 16:20:07;;;;;;;0.20;0.10;;;13.20;99.90;;;;;;25081468;23;20166;-72
2022/02/12 16:30:11;;;;;;;0.20;0.10;;;13.10;99.90;;;;;;25078839;23;20192;-70
2022/02/12 16:40:19;;;;;;;0.20;0.10;;;12.90;99.90;;;;;;25078353;23;20209;-71
2022/02/12 16:50:23;;;;;;;0.20;0.10;;;12.90;99.90;;;;;;25077086;23;20201;-71
2022/02/12 17:00:29;;;;;;;0.20;0.10;;;12.80;99.90;;;;;;25078485;23;20185;-72
2022/02/12 17:10:34;;;;;;;0.20;0.10;;;12.80;99.90;;;;;;25077268;23;20285;-72
2022/02/12 17:20:39;;;;;;;0.20;0.00;;;12.70;99.90;;;;;;25072739;23;20180;-71
2022/02/12 17:30:43;;;;;;;0.20;0.10;;;12.60;99.90;;;;;;25075121;23;20181;-70
2022/02/12 17:40:49;;;;;;;0.20;0.10;;;12.60;99.90;;;;;;25074515;23;20190;-71
2022/02/12 17:50:52;;;;;;;0.20;0.10;;;12.60;99.90;;;;;;25076249;23;20189;-72
2022/02/12 18:00:58;;;;;;;0.20;0.10;;;12.50;99.90;;;;;;25074920;23;20189;-74
2022/02/12 18:11:02;;;;;;;0.20;0.10;;;12.40;99.90;;;;;;25083267;23;20253;-73
2022/02/12 18:21:07;;;;;;;0.20;0.10;;;12.30;99.90;;;;;;25083309;23;20236;-74
2022/02/12 18:31:11;;;;;;;0.20;0.10;;;12.20;99.90;;;;;;25082947;23;20186;-75
2022/02/12 18:41:20;;;;;;;0.20;0.10;;;12.30;99.90;;;;;;25083710;23;20256;-73
2022/02/12 18:51:26;;;;;;;0.20;0.10;;;12.30;99.90;;;;;;25080803;23;20190;-72
2022/02/12 19:01:31;;;;;;;0.20;0.10;;;12.30;99.90;;;;;;25080758;23;20158;-72
2022/02/12 19:11:36;;;;;;;0.20;0.10;;;12.20;99.90;;;;;;25080525;23;20204;-71
2022/02/12 19:21:41;;;;;;;0.20;0.10;;;12.30;99.90;;;;;;25078363;23;20173;-73
2022/02/12 19:31:46;;;;;;;0.20;0.10;;;12.00;99.90;;;;;;25079443;23;20189;-73
2022/02/12 19:41:51;;;;;;;0.20;0.10;;;12.10;99.90;;;;;;25081258;23;20201;-75
2022/02/12 19:51:55;;;;;;;0.20;0.10;;;12.00;99.90;;;;;;25077916;23;20185;-74
2022/02/12 20:02:00;;;;;;;0.20;0.10;;;12.00;99.90;;;;;;25076179;23;20189;-72
2022/02/12 20:12:05;;;;;;;0.20;0.10;;;12.00;99.90;;;;;;25079192;23;20247;-73
2022/02/12 20:22:10;;;;;;;0.20;0.10;;;11.90;99.90;;;;;;25078100;23;20173;-73
2022/02/12 20:32:14;;;;;;;0.20;0.10;;;11.90;99.90;;;;;;25079037;23;20190;-67
2022/02/12 20:42:19;;;;;;;0.20;0.10;;;11.90;99.90;;;;;;25078341;23;20197;-66
2022/02/12 20:52:23;;;;;;;0.20;0.10;;;11.80;99.90;;;;;;25072492;23;20193;-67
2022/02/12 21:02:28;;;;;;;1.60;0.90;;;11.60;99.90;;;;;;25080278;23;20185;-67
2022/02/12 21:12:33;;;;;;;0.20;0.10;;;11.20;99.90;;;;;;25076985;23;20256;-65
2022/02/12 21:22:40;;;;;;;0.20;0.00;;;11.00;99.90;;;;;;25081054;23;20233;-66
2022/02/12 21:32:44;;;;;;;0.20;0.00;;;10.90;99.90;;;;;;25079795;23;20204;-65
2022/02/12 21:42:49;;;;;;;0.20;0.10;;;10.60;99.90;;;;;;25059270;23;20299;-63
2022/02/12 21:52:56;;;;;;;1.33;1.33;;;10.60;99.90;;;;;;25088477;23;20190;-64
2022/02/12 22:03:01;;;;;;;0.20;0.00;;;10.40;99.90;;;;;;25085114;23;20165;-65
2022/02/12 22:13:06;;;;;;;0.20;0.10;;;10.30;99.90;;;;;;25086897;23;20197;-65
2022/02/12 22:23:12;;;;;;;0.20;0.00;;;10.20;99.90;;;;;;25086230;23;20182;-64
2022/02/12 22:33:15;;;;;;;0.20;0.00;;;10.20;99.90;;;;;;25085523;23;20185;-65
2022/02/12 22:43:21;;;;;;;0.20;0.10;;;10.20;99.90;;;;;;25084628;23;20209;-68
2022/02/12 22:53:24;;;;;;;0.20;0.10;;;10.00;99.90;;;;;;25084229;23;20189;-67
2022/02/12 23:03:30;;;;;;;0.20;0.10;;;10.10;99.90;;;;;;25078102;23;20188;-66
2022/02/12 23:13:35;;;;;;;0.20;0.10;;;10.00;99.90;;;;;;25088089;23;20488;-67
2022/02/12 23:23:41;;;;;;;0.20;0.00;;;10.10;99.90;;;;;;25089713;23;20177;-67
2022/02/12 23:33:45;;;;;;;0.20;0.10;;;10.20;99.90;;;;;;25087970;23;20201;-66
2022/02/12 23:43:51;;;;;;;0.20;0.10;;;10.10;99.90;;;;;;25085792;23;20205;-68
2022/02/12 23:53:55;;;;;;;0.20;0.00;;;10.20;99.90;;;;;;25086108;23;20189;-69
